createdAt,value
2022-08-16T00:01:24.539Z,65.42
2022-08-16T00:03:53.852Z,65.66
2022-08-16T00:06:22.481Z,66.10
2022-08-16T00:08:50.363Z,65.34
2022-08-16T00:11:21.247Z,65.67
2022-08-16T00:13:53.772Z,66.96
2022-08-16T00:17:05.423Z,67.41
2022-08-16T00:19:16.332Z,68.25
2022-08-16T00:21:43.933Z,67.79
2022-08-16T00:24:13.182Z,68.99
2022-08-16T00:26:58.303Z,67.35
2022-08-16T00:29:25.613Z,66.68
2022-08-16T00:31:59.996Z,66.63
2022-08-16T00:34:44.584Z,66.82
2022-08-16T00:37:18.714Z,67.56
2022-08-16T00:39:58.200Z,67.38
2022-08-16T00:42:32.170Z,66.86
2022-08-16T00:45:30.727Z,67.89
2022-08-16T00:48:30.697Z,67.65
2022-08-16T00:50:55.240Z,68.16
2022-08-16T00:53:23.229Z,67.68
2022-08-16T00:55:54.867Z,68.16
2022-08-16T00:58:34.550Z,68.87
2022-08-16T01:01:08.236Z,68.09
2022-08-16T01:03:41.674Z,68.13
2022-08-16T01:06:40.886Z,68.78
2022-08-16T01:08:59.948Z,68.05
2022-08-16T01:11:29.489Z,68.48
2022-08-16T01:14:20.132Z,68.21
2022-08-16T01:16:48.634Z,68.34
2022-08-16T01:19:34.958Z,69.35
2022-08-16T01:22:47.467Z,69.48
2022-08-16T01:25:36.431Z,68.42
2022-08-16T01:28:11.326Z,68.63
2022-08-16T01:30:55.523Z,68.88
2022-08-16T01:33:23.991Z,68.28
2022-08-16T01:36:12.141Z,68.01
2022-08-16T01:38:48.888Z,69.51
2022-08-16T01:41:25.848Z,69.66
2022-08-16T01:44:00.998Z,69.17
2022-08-16T01:46:41.055Z,68.68
2022-08-16T01:49:22.509Z,69.97
2022-08-16T01:51:57.917Z,70.83
2022-08-16T01:54:41.348Z,70.04
2022-08-16T01:57:12.114Z,70.14
2022-08-16T01:59:41.616Z,70.37
2022-08-16T02:02:26.681Z,69.30
2022-08-16T02:04:55.028Z,70.06
2022-08-16T02:07:25.523Z,69.97
2022-08-16T02:09:57.536Z,69.60
2022-08-16T02:12:50.398Z,70.67
2022-08-16T02:15:24.862Z,70.47
2022-08-16T02:17:56.620Z,70.47
2022-08-16T02:20:27.872Z,70.83
2022-08-16T02:22:58.412Z,70.80
2022-08-16T02:25:52.350Z,70.75
2022-08-16T02:28:17.376Z,70.44
2022-08-16T02:30:50.820Z,70.31
2022-08-16T02:33:20.614Z,70.44
2022-08-16T02:35:55.385Z,71.17
2022-08-16T02:38:29.215Z,70.48
2022-08-16T02:41:02.128Z,70.63
2022-08-16T02:43:35.932Z,70.65
2022-08-16T02:46:09.130Z,69.01
2022-08-16T02:48:39.193Z,71.29
2022-08-16T02:51:14.520Z,70.88
2022-08-16T02:53:46.246Z,71.22
2022-08-16T02:56:16.279Z,70.81
2022-08-16T02:58:47.114Z,70.06
2022-08-16T03:01:25.114Z,70.17
2022-08-16T03:04:41.436Z,70.89
2022-08-16T03:06:57.406Z,69.94
2022-08-16T03:09:38.587Z,70.15
2022-08-16T03:12:07.260Z,69.80
2022-08-16T03:14:35.719Z,70.47
2022-08-16T03:17:06.110Z,70.34
2022-08-16T03:19:48.714Z,70.94
2022-08-16T03:22:29.109Z,70.67
2022-08-16T03:25:02.663Z,70.11
2022-08-16T03:27:33.426Z,70.60
2022-08-16T03:30:15.991Z,71.69
2022-08-16T03:32:47.399Z,71.41
2022-08-16T03:35:18.174Z,71.53
2022-08-16T03:38:01.634Z,71.16
2022-08-16T03:40:35.070Z,71.57
2022-08-16T03:43:19.994Z,71.19
2022-08-16T03:45:52.762Z,71.07
2022-08-16T03:48:37.151Z,71.95
2022-08-16T03:51:13.678Z,71.41
2022-08-16T03:54:01.096Z,70.08
2022-08-16T03:56:30.489Z,70.60
2022-08-16T03:58:59.300Z,70.51
2022-08-16T04:01:31.127Z,70.61
2022-08-16T04:03:59.059Z,70.34
2022-08-16T04:06:27.675Z,70.83
2022-08-16T04:08:55.394Z,70.84
2022-08-16T04:11:24.654Z,70.82
2022-08-16T04:14:00.370Z,71.13
2022-08-16T04:16:39.139Z,72.26
2022-08-16T04:19:31.793Z,71.97
2022-08-16T04:22:00.829Z,71.90
2022-08-16T04:24:31.823Z,72.04
2022-08-16T04:26:59.258Z,72.50
2022-08-16T04:29:27.806Z,71.84
2022-08-16T04:32:11.314Z,72.38
2022-08-16T04:34:42.624Z,72.47
2022-08-16T04:37:12.047Z,71.89
2022-08-16T04:39:45.748Z,72.65
2022-08-16T04:42:17.433Z,71.91
2022-08-16T04:44:53.892Z,72.25
2022-08-16T04:47:31.666Z,72.30
2022-08-16T04:50:14.496Z,72.51
2022-08-16T04:52:59.134Z,72.77
2022-08-16T04:55:37.546Z,72.76
2022-08-16T04:58:43.870Z,72.76
2022-08-16T05:00:57.769Z,72.54
2022-08-16T05:03:26.232Z,72.40
2022-08-16T05:05:59.051Z,72.58
2022-08-16T05:08:30.987Z,73.84
2022-08-16T05:11:09.563Z,72.30
2022-08-16T05:13:45.628Z,71.87
2022-08-16T05:16:23.088Z,72.08
2022-08-16T05:19:00.454Z,71.60
2022-08-16T05:21:38.173Z,72.13
2022-08-16T05:24:09.410Z,72.33
2022-08-16T05:26:40.962Z,72.90
2022-08-16T05:29:14.745Z,71.87
2022-08-16T05:31:53.154Z,72.02
2022-08-16T05:34:22.423Z,72.65
2022-08-16T05:36:52.991Z,72.30
2022-08-16T05:39:22.439Z,72.17
2022-08-16T05:41:51.693Z,72.54
2022-08-16T05:44:24.498Z,72.66
2022-08-16T05:47:00.238Z,71.96
2022-08-16T05:49:38.433Z,71.74
2022-08-16T05:52:11.288Z,72.21
2022-08-16T05:54:46.702Z,71.98
2022-08-16T05:57:20.590Z,71.80
2022-08-16T05:59:50.736Z,71.71
2022-08-16T06:02:33.362Z,71.59
2022-08-16T06:05:02.314Z,71.50
2022-08-16T06:07:31.979Z,71.70
2022-08-16T06:10:08.074Z,71.26
2022-08-16T06:12:38.511Z,71.15
2022-08-16T06:15:16.884Z,71.82
2022-08-16T06:17:45.389Z,71.49
2022-08-16T06:20:34.872Z,71.65
2022-08-16T06:23:11.531Z,71.24
2022-08-16T06:25:55.277Z,70.88
2022-08-16T06:28:34.798Z,71.44
2022-08-16T06:31:05.605Z,71.48
2022-08-16T06:33:41.598Z,70.99
2022-08-16T06:36:11.766Z,71.08
2022-08-16T06:38:55.691Z,70.48
2022-08-16T06:41:39.764Z,70.46
2022-08-16T06:44:20.806Z,71.07
2022-08-16T06:46:50.597Z,70.29
2022-08-16T06:49:18.153Z,70.76
2022-08-16T06:51:48.457Z,70.36
2022-08-16T06:54:21.178Z,70.17
2022-08-16T06:56:52.350Z,69.93
2022-08-16T06:59:21.426Z,69.99
2022-08-16T07:01:55.304Z,70.16
2022-08-16T07:04:33.337Z,69.76
2022-08-16T07:07:14.371Z,69.28
2022-08-16T07:09:42.269Z,69.24
2022-08-16T07:12:09.733Z,69.04
2022-08-16T07:14:41.349Z,68.96
2022-08-16T07:17:11.412Z,68.69
2022-08-16T07:20:02.908Z,68.73
2022-08-16T07:22:42.462Z,68.24
2022-08-16T07:25:23.719Z,68.19
2022-08-16T07:27:51.728Z,67.85
2022-08-16T07:30:39.219Z,67.73
2022-08-16T07:33:16.009Z,67.42
2022-08-16T07:35:49.750Z,67.02
2022-08-16T07:38:20.023Z,67.18
2022-08-16T07:41:00.421Z,67.14
2022-08-16T07:43:29.347Z,66.93
2022-08-16T07:46:01.510Z,66.19
2022-08-16T07:48:30.941Z,66.48
2022-08-16T07:51:00.189Z,65.96
2022-08-16T07:53:34.421Z,65.75
2022-08-16T07:56:11.216Z,65.51
2022-08-16T07:58:40.123Z,65.08
2022-08-16T08:01:15.097Z,64.88
2022-08-16T08:03:49.248Z,64.43
2022-08-16T08:06:25.124Z,64.54
2022-08-16T08:08:57.002Z,64.63
2022-08-16T08:11:28.417Z,64.18
2022-08-16T08:14:03.699Z,63.92
2022-08-16T08:16:33.242Z,63.80
2022-08-16T08:19:02.812Z,63.91
2022-08-16T08:22:00.912Z,63.77
2022-08-16T08:24:32.086Z,62.58
2022-08-16T08:27:03.303Z,62.92
2022-08-16T08:29:37.788Z,62.10
2022-08-16T08:32:58.863Z,62.72
2022-08-16T08:35:00.477Z,62.00
2022-08-16T08:37:54.456Z,62.11
2022-08-16T08:40:24.712Z,61.65
2022-08-16T08:43:00.706Z,61.49
2022-08-16T08:45:53.103Z,61.55
2022-08-16T08:48:33.064Z,61.65
2022-08-16T08:51:09.808Z,61.64
2022-08-16T08:53:57.792Z,60.43
2022-08-16T08:56:30.383Z,59.57
2022-08-16T08:59:13.079Z,60.70
2022-08-16T09:01:57.048Z,60.04
2022-08-16T09:04:38.680Z,60.02
2022-08-16T09:07:07.083Z,59.14
2022-08-16T09:09:37.804Z,59.53
2022-08-16T09:12:35.740Z,58.30
2022-08-16T09:15:08.942Z,58.01
2022-08-16T09:17:51.687Z,57.72
2022-08-16T09:20:25.461Z,58.29
2022-08-16T09:22:54.472Z,57.03
2022-08-16T09:25:34.450Z,55.75
2022-08-16T09:28:09.152Z,57.27
2022-08-16T09:30:43.115Z,57.78
2022-08-16T09:33:13.632Z,56.30
2022-08-16T09:35:42.436Z,56.38
2022-08-16T09:38:22.294Z,56.03
2022-08-16T09:41:00.648Z,56.21
2022-08-16T09:43:59.315Z,57.17
2022-08-16T09:46:48.093Z,56.19
2022-08-16T09:49:03.736Z,54.83
2022-08-16T09:51:37.199Z,55.46
2022-08-16T09:54:06.381Z,55.35
2022-08-16T09:56:39.554Z,55.33
2022-08-16T09:59:22.483Z,54.44
2022-08-16T10:01:51.081Z,53.38
2022-08-16T10:04:30.927Z,54.56
2022-08-16T10:07:15.143Z,54.26
2022-08-16T10:09:54.662Z,54.34
2022-08-16T10:12:55.846Z,53.06
2022-08-16T10:15:27.294Z,54.18
2022-08-16T10:17:59.905Z,54.28
2022-08-16T10:20:35.110Z,54.35
2022-08-16T10:23:07.078Z,53.84
2022-08-16T10:27:21.945Z,53.82
2022-08-16T10:28:31.918Z,53.78
2022-08-16T10:31:05.456Z,53.76
2022-08-16T10:33:34.565Z,53.85
2022-08-16T10:36:05.492Z,53.28
2022-08-16T10:38:38.622Z,52.78
2022-08-16T10:41:10.831Z,54.08
2022-08-16T10:43:43.303Z,50.37
2022-08-16T10:46:33.716Z,51.20
2022-08-16T10:49:01.467Z,50.21
2022-08-16T10:51:34.623Z,51.23
2022-08-16T10:54:28.714Z,50.35
2022-08-16T10:57:01.340Z,49.01
2022-08-16T10:59:45.786Z,49.58
2022-08-16T11:02:59.932Z,49.67
2022-08-16T11:05:15.368Z,47.90
2022-08-16T11:07:51.908Z,47.12
2022-08-16T11:19:05.853Z,47.35
2022-08-16T11:24:42.544Z,48.51
2022-08-16T11:27:22.934Z,49.11
2022-08-16T11:29:56.527Z,48.32
2022-08-16T11:32:31.924Z,48.40
2022-08-16T11:35:10.455Z,45.93
2022-08-16T11:40:36.258Z,44.12
2022-08-16T11:43:04.944Z,44.35
2022-08-16T11:45:35.070Z,44.53
2022-08-16T11:48:04.253Z,43.69
2022-08-16T11:50:35.155Z,45.15
2022-08-16T11:53:05.252Z,44.89
2022-08-16T11:55:35.276Z,45.19
2022-08-16T11:58:08.419Z,44.70
2022-08-16T12:00:51.364Z,45.03
2022-08-16T12:03:31.564Z,44.57
2022-08-16T12:06:24.518Z,42.94
2022-08-16T12:09:00.652Z,42.94
2022-08-16T12:11:28.207Z,43.15
2022-08-16T12:14:04.588Z,40.11
2022-08-16T12:16:34.194Z,42.84
2022-08-16T12:19:05.929Z,42.73
2022-08-16T12:21:35.792Z,41.85
2022-08-16T12:24:22.400Z,42.73
2022-08-16T12:26:52.502Z,40.80
2022-08-16T12:29:21.059Z,40.08
2022-08-16T12:32:00.505Z,40.71
2022-08-16T12:34:29.581Z,40.90
2022-08-16T12:36:58.283Z,40.41
2022-08-16T12:39:28.937Z,39.61
2022-08-16T12:41:57.687Z,40.19
2022-08-16T12:44:26.411Z,39.41
2022-08-16T12:47:17.744Z,39.90
2022-08-16T12:49:45.136Z,40.45
2022-08-16T12:52:33.170Z,40.87
2022-08-16T12:55:01.091Z,40.63
2022-08-16T12:57:36.765Z,41.99
2022-08-16T13:00:13.027Z,41.41
2022-08-16T13:02:54.507Z,39.44
2022-08-16T13:05:22.222Z,39.19
2022-08-16T13:07:51.156Z,40.21
2022-08-16T13:10:38.016Z,39.23
2022-08-16T13:13:09.104Z,40.18
2022-08-16T13:15:51.552Z,38.61
2022-08-16T13:18:33.548Z,37.44
2022-08-16T13:21:02.956Z,37.81
2022-08-16T13:23:30.364Z,38.48
2022-08-16T13:25:57.871Z,37.54
2022-08-16T13:28:25.094Z,35.96
2022-08-16T13:30:56.274Z,35.67
2022-08-16T13:33:30.594Z,36.60
2022-08-16T13:36:00.739Z,37.31
2022-08-16T13:38:36.453Z,36.74
2022-08-16T13:41:08.324Z,37.17
2022-08-16T13:43:38.103Z,36.46
2022-08-16T13:46:06.563Z,38.52
2022-08-16T13:48:43.091Z,38.30
2022-08-16T13:51:18.658Z,38.56
2022-08-16T13:53:59.958Z,38.30
2022-08-16T13:56:37.868Z,36.83
2022-08-16T13:59:19.133Z,36.45
2022-08-16T14:01:54.733Z,36.43
2022-08-16T14:04:26.569Z,35.49
2022-08-16T14:06:56.539Z,35.44
2022-08-16T14:09:24.333Z,35.22
2022-08-16T14:11:53.339Z,36.28
2022-08-16T14:14:29.284Z,34.39
2022-08-16T14:17:02.186Z,35.27
2022-08-16T14:19:29.809Z,35.15
2022-08-16T14:22:14.456Z,35.52
2022-08-16T14:24:47.560Z,34.15
2022-08-16T14:27:17.962Z,34.69
2022-08-16T14:29:49.032Z,34.79
2022-08-16T14:32:33.034Z,35.10
2022-08-16T14:35:07.421Z,35.14
2022-08-16T14:37:35.727Z,35.57
2022-08-16T14:40:06.036Z,34.86
2022-08-16T14:42:33.639Z,33.83
2022-08-16T14:45:07.501Z,34.57
2022-08-16T14:47:38.375Z,34.44
2022-08-16T14:50:09.532Z,32.31
2022-08-16T14:52:58.487Z,32.96
2022-08-16T14:55:29.202Z,34.00
2022-08-16T14:57:57.716Z,33.92
2022-08-16T15:00:33.847Z,33.26
2022-08-16T15:03:09.740Z,33.33
2022-08-16T15:05:40.479Z,32.00
2022-08-16T15:08:08.653Z,33.35
2022-08-16T15:10:37.383Z,33.87
2022-08-16T15:13:09.675Z,32.12
2022-08-16T15:15:37.867Z,32.45
2022-08-16T15:18:06.174Z,32.36
2022-08-16T15:20:38.462Z,33.07
2022-08-16T15:23:09.089Z,32.48
2022-08-16T15:25:44.548Z,33.38
2022-08-16T15:28:30.517Z,32.93
2022-08-16T15:31:05.984Z,33.84
2022-08-16T15:33:43.552Z,32.90
2022-08-16T15:36:18.154Z,33.48
2022-08-16T15:39:02.786Z,32.83
2022-08-16T15:41:38.690Z,33.77
2022-08-16T15:44:10.667Z,34.00
2022-08-16T15:46:56.271Z,34.72
2022-08-16T15:49:37.195Z,34.70
2022-08-16T15:52:15.116Z,34.56
2022-08-16T15:54:53.442Z,34.08
2022-08-16T15:57:25.622Z,34.20
2022-08-16T15:59:56.088Z,34.43
2022-08-16T16:02:30.947Z,34.80
2022-08-16T16:05:09.635Z,33.44
2022-08-16T16:07:40.761Z,33.43
2022-08-16T16:10:23.040Z,34.94
2022-08-16T16:13:00.405Z,34.24
2022-08-16T16:15:33.245Z,34.86
2022-08-16T16:18:05.456Z,34.33
2022-08-16T16:20:43.413Z,34.14
2022-08-16T16:23:11.336Z,33.04
2022-08-16T16:25:43.947Z,32.02
2022-08-16T16:29:05.039Z,32.87
2022-08-16T16:31:06.227Z,32.48
2022-08-16T16:33:38.344Z,32.03
2022-08-16T16:36:08.566Z,31.67
2022-08-16T16:38:35.809Z,32.02
2022-08-16T16:41:09.365Z,32.01
2022-08-16T16:43:40.482Z,32.41
2022-08-16T16:46:41.370Z,32.79
2022-08-16T16:48:57.523Z,31.75
2022-08-16T16:51:28.109Z,31.90
2022-08-16T16:53:56.963Z,31.57
2022-08-16T16:56:31.335Z,31.80
2022-08-16T16:59:08.627Z,32.33
2022-08-16T17:01:59.633Z,32.73
2022-08-16T17:04:31.609Z,31.52
2022-08-16T17:07:03.038Z,32.73
2022-08-16T17:09:30.640Z,32.61
2022-08-16T17:11:58.436Z,33.33
2022-08-16T17:14:32.761Z,33.09
2022-08-16T17:17:13.656Z,32.80
2022-08-16T17:19:41.877Z,32.91
2022-08-16T17:22:14.387Z,32.90
2022-08-16T17:24:50.559Z,33.29
2022-08-16T17:27:32.503Z,32.47
2022-08-16T17:30:14.982Z,32.47
2022-08-16T17:32:54.645Z,33.59
2022-08-16T17:35:34.347Z,33.40
2022-08-16T17:38:04.637Z,33.33
2022-08-16T17:40:55.096Z,34.02
2022-08-16T17:43:37.627Z,34.30
2022-08-16T17:46:50.553Z,33.75
2022-08-16T17:48:59.341Z,34.49
2022-08-16T17:51:29.483Z,33.97
2022-08-16T17:53:57.042Z,34.14
2022-08-16T17:56:24.033Z,34.31
2022-08-16T17:58:51.134Z,34.58
2022-08-16T18:01:24.034Z,34.85
2022-08-16T18:04:06.961Z,35.23
2022-08-16T18:06:37.683Z,35.21
2022-08-16T18:09:05.294Z,35.43
2022-08-16T18:11:40.969Z,35.12
2022-08-16T18:14:10.552Z,35.14
2022-08-16T18:16:37.560Z,35.47
2022-08-16T18:19:04.581Z,35.50
2022-08-16T18:21:50.538Z,35.30
2022-08-16T18:24:18.918Z,35.60
2022-08-16T18:26:45.948Z,35.81
2022-08-16T18:29:13.956Z,35.17
2022-08-16T18:31:41.020Z,36.32
2022-08-16T18:34:08.077Z,36.11
2022-08-16T18:36:35.386Z,36.23
2022-08-16T18:39:03.277Z,35.86
2022-08-16T18:41:30.485Z,36.02
2022-08-16T18:44:25.048Z,36.35
2022-08-16T18:46:51.049Z,36.46
2022-08-16T18:49:19.490Z,36.63
2022-08-16T18:51:46.834Z,36.32
2022-08-16T18:54:18.254Z,36.61
2022-08-16T18:56:55.680Z,36.94
2022-08-16T18:59:28.255Z,36.94
2022-08-16T19:01:59.798Z,37.00
2022-08-16T19:04:55.531Z,37.11
2022-08-16T19:07:15.930Z,37.40
2022-08-16T19:09:42.983Z,37.44
2022-08-16T19:12:10.311Z,37.55
2022-08-16T19:14:37.288Z,37.78
2022-08-16T19:17:05.328Z,37.92
2022-08-16T19:19:32.325Z,37.99
2022-08-16T19:21:59.350Z,38.00
2022-08-16T19:24:29.046Z,37.81
2022-08-16T19:26:57.122Z,37.96
2022-08-16T19:29:25.035Z,38.13
2022-08-16T19:31:52.130Z,37.71
2022-08-16T19:34:19.151Z,38.17
2022-08-16T19:36:46.117Z,38.33
2022-08-16T19:39:16.403Z,38.53
2022-08-16T19:41:53.282Z,38.47
2022-08-16T19:44:22.537Z,38.25
2022-08-16T19:46:50.532Z,38.10
2022-08-16T19:49:17.806Z,38.18
2022-08-16T19:51:48.448Z,37.95
2022-08-16T19:54:15.766Z,38.41
2022-08-16T19:56:42.875Z,38.56
2022-08-16T19:59:40.358Z,38.77
2022-08-16T20:01:57.354Z,39.10
2022-08-16T20:04:25.779Z,38.82
2022-08-16T20:06:54.494Z,39.07
2022-08-16T20:09:28.272Z,39.55
2022-08-16T20:12:14.420Z,39.41
2022-08-16T20:14:42.828Z,39.67
2022-08-16T20:17:10.757Z,39.28
2022-08-16T20:19:40.601Z,39.78
2022-08-16T20:22:52.468Z,40.50
2022-08-16T20:25:28.690Z,39.82
2022-08-16T20:27:57.803Z,39.93
2022-08-16T20:30:25.874Z,40.38
2022-08-16T20:32:53.769Z,40.25
2022-08-16T20:35:24.957Z,40.28
2022-08-16T20:37:52.315Z,40.40
2022-08-16T20:40:34.718Z,40.42
2022-08-16T20:43:13.311Z,40.77
2022-08-16T20:45:48.165Z,40.53
2022-08-16T20:48:15.822Z,40.30
2022-08-16T20:50:44.004Z,40.13
2022-08-16T20:53:11.198Z,40.53
2022-08-16T20:55:40.001Z,40.39
2022-08-16T20:58:07.157Z,40.47
2022-08-16T21:00:34.164Z,40.13
2022-08-16T21:03:06.672Z,40.42
2022-08-16T21:05:36.853Z,40.62
2022-08-16T21:08:29.382Z,40.47
2022-08-16T21:10:52.504Z,40.67
2022-08-16T21:13:20.758Z,40.83
2022-08-16T21:15:47.963Z,40.47
2022-08-16T21:18:15.043Z,40.80
2022-08-16T21:20:42.033Z,40.48
2022-08-16T21:23:10.951Z,40.76
2022-08-16T21:25:57.803Z,40.73
2022-08-16T21:28:41.958Z,40.82
2022-08-16T21:31:12.758Z,40.42
2022-08-16T21:33:40.056Z,40.79
2022-08-16T21:36:07.561Z,40.97
2022-08-16T21:38:34.906Z,40.81
2022-08-16T21:41:08.054Z,40.79
2022-08-16T21:43:35.360Z,40.57
2022-08-16T21:46:05.344Z,40.82
2022-08-16T21:48:35.804Z,40.96
2022-08-16T21:51:11.788Z,41.04
2022-08-16T21:53:40.095Z,41.11
2022-08-16T21:56:09.818Z,41.00
2022-08-16T21:58:43.573Z,41.44
2022-08-16T22:01:11.437Z,41.64
2022-08-16T22:03:38.407Z,41.34
2022-08-16T22:06:12.186Z,41.49
2022-08-16T22:08:50.549Z,41.32
2022-08-16T22:11:20.299Z,41.44
2022-08-16T22:13:57.222Z,41.51
2022-08-16T22:16:36.895Z,41.84
2022-08-16T22:19:05.341Z,41.86
2022-08-16T22:21:34.571Z,41.54
2022-08-16T22:24:01.667Z,41.59
2022-08-16T22:26:32.606Z,41.76
2022-08-16T22:29:13.797Z,42.10
2022-08-16T22:31:43.199Z,41.68
2022-08-16T22:34:10.624Z,41.49
2022-08-16T22:36:38.832Z,41.69
2022-08-16T22:39:10.049Z,41.45
2022-08-16T22:41:40.117Z,41.59
2022-08-16T22:44:07.743Z,41.53
2022-08-16T22:46:36.614Z,41.70
2022-08-16T22:49:06.301Z,42.03
2022-08-16T22:51:34.658Z,41.71
2022-08-16T22:54:34.207Z,41.77
2022-08-16T22:56:49.064Z,41.58
2022-08-16T22:59:16.060Z,41.64
2022-08-16T23:01:43.933Z,41.71
2022-08-16T23:04:11.011Z,41.71
2022-08-16T23:06:38.023Z,41.85
2022-08-16T23:09:05.022Z,41.85
2022-08-16T23:11:32.344Z,42.01
2022-08-16T23:13:59.554Z,41.89
2022-08-16T23:16:33.471Z,42.11
2022-08-16T23:19:08.823Z,42.28
2022-08-16T23:21:38.484Z,42.18
2022-08-16T23:24:07.777Z,42.14
2022-08-16T23:26:36.555Z,42.12
2022-08-16T23:29:23.475Z,42.21
2022-08-16T23:31:55.338Z,42.56
2022-08-16T23:34:22.576Z,42.90
2022-08-16T23:36:49.568Z,42.85
2022-08-16T23:39:16.534Z,42.81
2022-08-16T23:41:44.649Z,43.24
2022-08-16T23:44:56.993Z,43.10
2022-08-16T23:46:59.040Z,43.19
2022-08-16T23:50:00.390Z,43.60
2022-08-16T23:52:12.954Z,43.56
2022-08-16T23:54:39.959Z,43.73
2022-08-16T23:57:08.297Z,43.39
2022-08-16T23:59:52.738Z,43.69
